sensor_id;sensor_type;location;lat;lon;timestamp;temperature;humidity
42965;DHT22;28604;51.204;22.552;2023-12-22T03:51:28;4.20;93.70
42965;DHT22;28604;51.204;22.552;2023-12-22T03:53:54;4.20;93.70
42965;DHT22;28604;51.204;22.552;2023-12-22T03:56:20;4.20;93.60
42965;DHT22;28604;51.204;22.552;2023-12-22T03:58:46;4.10;93.50
42965;DHT22;28604;51.204;22.552;2023-12-22T04:01:14;4.20;93.60
42965;DHT22;28604;51.204;22.552;2023-12-22T04:03:40;4.00;93.40
42965;DHT22;28604;51.204;22.552;2023-12-22T04:06:06;4.00;93.40
42965;DHT22;28604;51.204;22.552;2023-12-22T04:08:32;3.90;93.40
42965;DHT22;28604;51.204;22.552;2023-12-22T04:10:58;3.90;93.50
42965;DHT22;28604;51.204;22.552;2023-12-22T04:13:24;3.90;93.50
42965;DHT22;28604;51.204;22.552;2023-12-22T04:15:50;3.90;93.50
42965;DHT22;28604;51.204;22.552;2023-12-22T04:18:16;3.90;93.50
42965;DHT22;28604;51.204;22.552;2023-12-22T04:20:41;3.70;93.50
42965;DHT22;28604;51.204;22.552;2023-12-22T04:23:07;3.80;93.50
42965;DHT22;28604;51.204;22.552;2023-12-22T04:25:33;3.70;93.50
42965;DHT22;28604;51.204;22.552;2023-12-22T04:27:59;3.60;93.50
42965;DHT22;28604;51.204;22.552;2023-12-22T04:30:25;3.60;93.60
42965;DHT22;28604;51.204;22.552;2023-12-22T04:32:53;3.60;93.60
42965;DHT22;28604;51.204;22.552;2023-12-22T04:35:19;3.60;93.60
42965;DHT22;28604;51.204;22.552;2023-12-22T04:37:45;3.50;93.60
42965;DHT22;28604;51.204;22.552;2023-12-22T04:40:11;3.60;93.60
42965;DHT22;28604;51.204;22.552;2023-12-22T04:42:37;3.50;93.60
42965;DHT22;28604;51.204;22.552;2023-12-22T04:45:03;3.50;93.50
42965;DHT22;28604;51.204;22.552;2023-12-22T04:47:29;3.50;93.60
42965;DHT22;28604;51.204;22.552;2023-12-22T04:49:55;3.50;93.60
42965;DHT22;28604;51.204;22.552;2023-12-22T04:52:21;3.50;93.50
42965;DHT22;28604;51.204;22.552;2023-12-22T04:54:47;3.40;93.50
42965;DHT22;28604;51.204;22.552;2023-12-22T04:57:13;3.40;93.40
42965;DHT22;28604;51.204;22.552;2023-12-22T04:59:39;3.40;93.40
42965;DHT22;28604;51.204;22.552;2023-12-22T05:02:04;3.40;93.40
42965;DHT22;28604;51.204;22.552;2023-12-22T05:04:31;3.30;93.30
42965;DHT22;28604;51.204;22.552;2023-12-22T05:09:52;3.30;93.30
42965;DHT22;28604;51.204;22.552;2023-12-22T05:12:20;3.30;93.30
42965;DHT22;28604;51.204;22.552;2023-12-22T05:14:46;3.20;93.30
42965;DHT22;28604;51.204;22.552;2023-12-22T05:17:12;3.20;93.20
42965;DHT22;28604;51.204;22.552;2023-12-22T05:19:38;3.30;93.40
42965;DHT22;28604;51.204;22.552;2023-12-22T05:22:04;3.20;93.40
42965;DHT22;28604;51.204;22.552;2023-12-22T05:24:29;3.20;93.40
42965;DHT22;28604;51.204;22.552;2023-12-22T05:26:55;3.20;93.30
42965;DHT22;28604;51.204;22.552;2023-12-22T05:29:21;3.20;93.40
42965;DHT22;28604;51.204;22.552;2023-12-22T05:31:47;3.10;93.30
42965;DHT22;28604;51.204;22.552;2023-12-22T05:34:13;3.20;93.40
42965;DHT22;28604;51.204;22.552;2023-12-22T05:36:39;3.10;93.30
42965;DHT22;28604;51.204;22.552;2023-12-22T05:39:05;3.10;93.40
42965;DHT22;28604;51.204;22.552;2023-12-22T05:41:33;3.10;93.40
42965;DHT22;28604;51.204;22.552;2023-12-22T05:44:01;3.10;93.40
42965;DHT22;28604;51.204;22.552;2023-12-22T05:46:27;3.10;93.30
42965;DHT22;28604;51.204;22.552;2023-12-22T05:48:53;3.10;93.40
42965;DHT22;28604;51.204;22.552;2023-12-22T05:51:20;3.10;93.40
42965;DHT22;28604;51.204;22.552;2023-12-22T05:53:47;3.20;93.50
42965;DHT22;28604;51.204;22.552;2023-12-22T05:56:19;3.20;93.40
42965;DHT22;28604;51.204;22.552;2023-12-22T05:58:45;3.20;93.60
42965;DHT22;28604;51.204;22.552;2023-12-22T06:01:16;3.20;93.70
42965;DHT22;28604;51.204;22.552;2023-12-22T06:03:42;3.20;93.70
42965;DHT22;28604;51.204;22.552;2023-12-22T06:06:08;3.20;93.60
42965;DHT22;28604;51.204;22.552;2023-12-22T06:08:34;3.10;93.70
42965;DHT22;28604;51.204;22.552;2023-12-22T06:11:00;3.10;93.80
42965;DHT22;28604;51.204;22.552;2023-12-22T06:13:26;3.10;93.70
42965;DHT22;28604;51.204;22.552;2023-12-22T06:15:52;3.10;93.70
42965;DHT22;28604;51.204;22.552;2023-12-22T06:18:17;3.10;93.70
42965;DHT22;28604;51.204;22.552;2023-12-22T06:20:43;3.10;93.70
42965;DHT22;28604;51.204;22.552;2023-12-22T06:23:09;3.10;93.70
42965;DHT22;28604;51.204;22.552;2023-12-22T06:25:35;3.10;93.60
42965;DHT22;28604;51.204;22.552;2023-12-22T06:28:01;3.00;93.70
42965;DHT22;28604;51.204;22.552;2023-12-22T06:30:27;3.00;93.50
42965;DHT22;28604;51.204;22.552;2023-12-22T06:32:53;3.00;93.50
42965;DHT22;28604;51.204;22.552;2023-12-22T06:35:19;3.00;93.40
42965;DHT22;28604;51.204;22.552;2023-12-22T06:37:49;2.90;93.50
42965;DHT22;28604;51.204;22.552;2023-12-22T06:40:15;2.90;93.50
42965;DHT22;28604;51.204;22.552;2023-12-22T06:42:41;2.90;93.50
42965;DHT22;28604;51.204;22.552;2023-12-22T06:45:08;2.80;93.50
42965;DHT22;28604;51.204;22.552;2023-12-22T06:47:36;2.90;93.60
42965;DHT22;28604;51.204;22.552;2023-12-22T06:50:02;2.90;93.60
42965;DHT22;28604;51.204;22.552;2023-12-22T06:52:29;2.90;93.60
42965;DHT22;28604;51.204;22.552;2023-12-22T06:54:56;2.90;93.60
42965;DHT22;28604;51.204;22.552;2023-12-22T06:57:22;2.90;93.60
42965;DHT22;28604;51.204;22.552;2023-12-22T07:00:15;2.90;93.60
42965;DHT22;28604;51.204;22.552;2023-12-22T07:02:42;3.00;93.60
42965;DHT22;28604;51.204;22.552;2023-12-22T07:07:49;3.00;93.60
42965;DHT22;28604;51.204;22.552;2023-12-22T07:10:16;3.00;93.60
42965;DHT22;28604;51.204;22.552;2023-12-22T07:12:42;3.00;93.50
42965;DHT22;28604;51.204;22.552;2023-12-22T07:15:08;3.00;93.40
42965;DHT22;28604;51.204;22.552;2023-12-22T07:17:34;3.00;93.40
42965;DHT22;28604;51.204;22.552;2023-12-22T07:20:01;3.00;93.30
42965;DHT22;28604;51.204;22.552;2023-12-22T07:22:29;3.00;93.20
42965;DHT22;28604;51.204;22.552;2023-12-22T07:24:55;3.00;93.20
42965;DHT22;28604;51.204;22.552;2023-12-22T07:27:21;3.00;93.10
42965;DHT22;28604;51.204;22.552;2023-12-22T07:29:49;3.00;93.20
42965;DHT22;28604;51.204;22.552;2023-12-22T10:04:46;7.50;81.80
42965;DHT22;28604;51.204;22.552;2023-12-22T10:07:13;7.60;81.30
42965;DHT22;28604;51.204;22.552;2023-12-22T10:09:41;7.70;81.60
42965;DHT22;28604;51.204;22.552;2023-12-22T10:12:09;7.70;81.20
42965;DHT22;28604;51.204;22.552;2023-12-22T10:14:37;7.80;81.50
42965;DHT22;28604;51.204;22.552;2023-12-22T10:17:04;7.80;81.70
42965;DHT22;28604;51.204;22.552;2023-12-22T10:19:30;7.80;81.20
42965;DHT22;28604;51.204;22.552;2023-12-22T10:21:56;7.90;81.20
42965;DHT22;28604;51.204;22.552;2023-12-22T10:27:05;8.00;81.10
42965;DHT22;28604;51.204;22.552;2023-12-22T10:29:31;8.00;81.70
42965;DHT22;28604;51.204;22.552;2023-12-22T10:32:01;8.00;81.70
42965;DHT22;28604;51.204;22.552;2023-12-22T10:34:27;8.10;81.70
42965;DHT22;28604;51.204;22.552;2023-12-22T10:36:53;8.10;80.20
42965;DHT22;28604;51.204;22.552;2023-12-22T10:39:19;8.20;80.50
42965;DHT22;28604;51.204;22.552;2023-12-22T10:41:48;8.20;79.90
42965;DHT22;28604;51.204;22.552;2023-12-22T10:44:15;8.20;79.10
42965;DHT22;28604;51.204;22.552;2023-12-22T10:46:43;8.10;77.90
42965;DHT22;28604;51.204;22.552;2023-12-22T10:49:09;8.10;78.00
42965;DHT22;28604;51.204;22.552;2023-12-22T10:51:35;8.00;75.80
42965;DHT22;28604;51.204;22.552;2023-12-22T10:54:01;7.90;76.40
42965;DHT22;28604;51.204;22.552;2023-12-22T10:56:30;7.80;76.20
42965;DHT22;28604;51.204;22.552;2023-12-22T10:58:56;7.70;76.00
42965;DHT22;28604;51.204;22.552;2023-12-22T11:01:28;7.70;76.10
42965;DHT22;28604;51.204;22.552;2023-12-22T11:03:58;7.60;76.60
42965;DHT22;28604;51.204;22.552;2023-12-22T11:06:29;7.50;76.30
42965;DHT22;28604;51.204;22.552;2023-12-22T11:08:57;7.50;75.70
42965;DHT22;28604;51.204;22.552;2023-12-22T11:11:32;7.60;75.80
42965;DHT22;28604;51.204;22.552;2023-12-22T11:14:01;7.50;75.90
42965;DHT22;28604;51.204;22.552;2023-12-22T11:16:28;7.50;76.50
42965;DHT22;28604;51.204;22.552;2023-12-22T11:18:54;7.40;75.90
42965;DHT22;28604;51.204;22.552;2023-12-22T11:21:23;7.40;74.80
42965;DHT22;28604;51.204;22.552;2023-12-22T11:23:53;7.30;75.10
42965;DHT22;28604;51.204;22.552;2023-12-22T14:15:34;2.60;91.20
42965;DHT22;28604;51.204;22.552;2023-12-22T14:18:00;2.50;91.10
42965;DHT22;28604;51.204;22.552;2023-12-22T14:20:26;2.40;91.10
42965;DHT22;28604;51.204;22.552;2023-12-22T14:22:52;2.40;91.20
42965;DHT22;28604;51.204;22.552;2023-12-22T14:25:18;2.40;91.10
42965;DHT22;28604;51.204;22.552;2023-12-22T14:27:44;2.40;91.20
42965;DHT22;28604;51.204;22.552;2023-12-22T14:30:10;2.40;91.20
42965;DHT22;28604;51.204;22.552;2023-12-22T14:32:36;2.30;91.10
42965;DHT22;28604;51.204;22.552;2023-12-22T14:35:03;2.30;91.10
42965;DHT22;28604;51.204;22.552;2023-12-22T14:37:29;2.30;91.10
42965;DHT22;28604;51.204;22.552;2023-12-22T14:39:55;2.30;91.20
42965;DHT22;28604;51.204;22.552;2023-12-22T14:42:21;2.20;91.20
42965;DHT22;28604;51.204;22.552;2023-12-22T14:44:47;2.30;91.40
42965;DHT22;28604;51.204;22.552;2023-12-22T14:47:14;2.30;91.40
42965;DHT22;28604;51.204;22.552;2023-12-22T15:06:27;2.10;91.80
42965;DHT22;28604;51.204;22.552;2023-12-22T15:08:53;2.10;91.80
42965;DHT22;28604;51.204;22.552;2023-12-22T15:11:19;2.10;91.90
42965;DHT22;28604;51.204;22.552;2023-12-22T15:13:45;2.10;92.10
42965;DHT22;28604;51.204;22.552;2023-12-22T15:16:11;2.10;92.00
42965;DHT22;28604;51.204;22.552;2023-12-22T15:18:37;2.00;92.00
42965;DHT22;28604;51.204;22.552;2023-12-22T15:21:03;2.10;92.00
42965;DHT22;28604;51.204;22.552;2023-12-22T15:23:29;2.10;92.00
42965;DHT22;28604;51.204;22.552;2023-12-22T15:25:56;2.10;92.00
42965;DHT22;28604;51.204;22.552;2023-12-22T15:28:22;2.10;92.10
42965;DHT22;28604;51.204;22.552;2023-12-22T15:30:48;2.10;92.20
42965;DHT22;28604;51.204;22.552;2023-12-22T15:33:14;2.10;92.30
42965;DHT22;28604;51.204;22.552;2023-12-22T15:35:40;2.10;92.40
42965;DHT22;28604;51.204;22.552;2023-12-22T15:38:06;2.10;92.50
42965;DHT22;28604;51.204;22.552;2023-12-22T15:40:32;2.00;92.50
42965;DHT22;28604;51.204;22.552;2023-12-22T15:42:58;2.10;92.60
42965;DHT22;28604;51.204;22.552;2023-12-22T15:45:24;2.00;92.60
42965;DHT22;28604;51.204;22.552;2023-12-22T15:47:50;2.00;92.70
42965;DHT22;28604;51.204;22.552;2023-12-22T15:50:16;2.00;92.70
42965;DHT22;28604;51.204;22.552;2023-12-22T15:52:43;2.00;92.70
42965;DHT22;28604;51.204;22.552;2023-12-22T15:55:09;2.10;92.80
42965;DHT22;28604;51.204;22.552;2023-12-22T15:57:35;2.00;92.90
42965;DHT22;28604;51.204;22.552;2023-12-22T16:00:02;2.00;92.90
42965;DHT22;28604;51.204;22.552;2023-12-22T16:02:35;2.00;93.00
42965;DHT22;28604;51.204;22.552;2023-12-22T16:05:04;2.00;92.90
42965;DHT22;28604;51.204;22.552;2023-12-22T16:07:30;2.00;92.90
42965;DHT22;28604;51.204;22.552;2023-12-22T16:09:56;2.00;93.10
42965;DHT22;28604;51.204;22.552;2023-12-22T16:12:22;2.00;93.00
42965;DHT22;28604;51.204;22.552;2023-12-22T16:14:48;2.00;93.10
42965;DHT22;28604;51.204;22.552;2023-12-22T16:17:14;2.00;93.00
42965;DHT22;28604;51.204;22.552;2023-12-22T16:19:40;1.90;93.10
42965;DHT22;28604;51.204;22.552;2023-12-22T16:22:06;1.90;93.10
42965;DHT22;28604;51.204;22.552;2023-12-22T16:24:32;1.90;93.30
42965;DHT22;28604;51.204;22.552;2023-12-22T16:26:59;1.90;93.30
42965;DHT22;28604;51.204;22.552;2023-12-22T16:29:24;1.90;93.30
42965;DHT22;28604;51.204;22.552;2023-12-22T16:31:50;1.90;93.30
42965;DHT22;28604;51.204;22.552;2023-12-22T16:34:16;1.80;93.30
42965;DHT22;28604;51.204;22.552;2023-12-22T16:36:46;1.80;93.40
42965;DHT22;28604;51.204;22.552;2023-12-22T16:39:12;1.80;93.40
42965;DHT22;28604;51.204;22.552;2023-12-22T16:41:38;1.80;93.40
42965;DHT22;28604;51.204;22.552;2023-12-22T16:44:04;1.80;93.50
42965;DHT22;28604;51.204;22.552;2023-12-22T16:46:31;1.80;93.50
42965;DHT22;28604;51.204;22.552;2023-12-22T16:48:56;1.80;93.60
42965;DHT22;28604;51.204;22.552;2023-12-22T16:51:22;1.70;93.60
42965;DHT22;28604;51.204;22.552;2023-12-22T16:53:48;1.70;93.50
42965;DHT22;28604;51.204;22.552;2023-12-22T16:56:14;1.70;93.60
42965;DHT22;28604;51.204;22.552;2023-12-22T16:58:41;1.70;93.50
42965;DHT22;28604;51.204;22.552;2023-12-22T17:01:07;1.70;93.60
42965;DHT22;28604;51.204;22.552;2023-12-22T17:03:33;1.70;93.60
42965;DHT22;28604;51.204;22.552;2023-12-22T17:06:01;1.80;93.60
42965;DHT22;28604;51.204;22.552;2023-12-22T17:08:28;1.70;93.60
42965;DHT22;28604;51.204;22.552;2023-12-22T17:10:54;1.70;93.70
42965;DHT22;28604;51.204;22.552;2023-12-22T17:13:20;1.70;93.60
42965;DHT22;28604;51.204;22.552;2023-12-22T17:15:46;1.80;93.60
42965;DHT22;28604;51.204;22.552;2023-12-22T17:18:12;1.70;93.60
42965;DHT22;28604;51.204;22.552;2023-12-22T17:20:38;1.70;93.70
42965;DHT22;28604;51.204;22.552;2023-12-22T17:23:03;1.70;93.60
42965;DHT22;28604;51.204;22.552;2023-12-22T17:25:30;1.70;93.70
42965;DHT22;28604;51.204;22.552;2023-12-22T17:27:55;1.70;93.90
42965;DHT22;28604;51.204;22.552;2023-12-22T17:30:21;1.70;93.60
42965;DHT22;28604;51.204;22.552;2023-12-22T17:32:54;1.70;93.60
42965;DHT22;28604;51.204;22.552;2023-12-22T17:35:20;1.70;93.60
42965;DHT22;28604;51.204;22.552;2023-12-22T17:37:45;1.70;93.70
42965;DHT22;28604;51.204;22.552;2023-12-22T17:40:12;1.70;93.70
42965;DHT22;28604;51.204;22.552;2023-12-22T17:42:37;1.70;93.70
42965;DHT22;28604;51.204;22.552;2023-12-22T17:45:08;1.70;93.70
42965;DHT22;28604;51.204;22.552;2023-12-22T20:00:22;1.70;92.10
42965;DHT22;28604;51.204;22.552;2023-12-22T20:33:48;1.60;91.00
42965;DHT22;28604;51.204;22.552;2023-12-22T20:36:14;1.70;90.90
42965;DHT22;28604;51.204;22.552;2023-12-22T20:38:39;1.60;90.80
42965;DHT22;28604;51.204;22.552;2023-12-22T20:41:07;1.60;90.70
42965;DHT22;28604;51.204;22.552;2023-12-22T20:43:33;1.60;90.50
42965;DHT22;28604;51.204;22.552;2023-12-22T20:46:00;1.60;90.40
42965;DHT22;28604;51.204;22.552;2023-12-22T20:48:25;1.60;90.30
42965;DHT22;28604;51.204;22.552;2023-12-22T20:50:52;1.60;90.40
42965;DHT22;28604;51.204;22.552;2023-12-22T20:53:18;1.60;90.40
42965;DHT22;28604;51.204;22.552;2023-12-22T20:55:44;1.60;90.10
42965;DHT22;28604;51.204;22.552;2023-12-22T20:58:11;1.60;89.90
42965;DHT22;28604;51.204;22.552;2023-12-22T21:00:37;1.70;90.00
42965;DHT22;28604;51.204;22.552;2023-12-22T21:03:03;1.60;90.00
42965;DHT22;28604;51.204;22.552;2023-12-22T21:05:29;1.60;89.60
42965;DHT22;28604;51.204;22.552;2023-12-22T21:07:55;1.60;89.30
42965;DHT22;28604;51.204;22.552;2023-12-22T21:10:21;1.60;89.90
42965;DHT22;28604;51.204;22.552;2023-12-22T21:12:47;1.70;89.80
42965;DHT22;28604;51.204;22.552;2023-12-22T21:15:13;1.70;89.80
42965;DHT22;28604;51.204;22.552;2023-12-22T21:17:40;1.70;89.50
42965;DHT22;28604;51.204;22.552;2023-12-22T21:20:12;1.70;89.60
42965;DHT22;28604;51.204;22.552;2023-12-22T21:22:39;1.70;89.40
42965;DHT22;28604;51.204;22.552;2023-12-22T21:25:05;1.70;89.00
42965;DHT22;28604;51.204;22.552;2023-12-22T21:32:16;1.70;89.50
42965;DHT22;28604;51.204;22.552;2023-12-22T23:39:56;1.70;87.20
42965;DHT22;28604;51.204;22.552;2023-12-22T23:47:06;1.70;86.80
